Time;durP1;ratioP1;P1;durP2;ratioP2;P2;SDS_P1;SDS_P2;PMS_P1;PMS_P2;Temp;Humidity;BMP_temperature;BMP_pressure;BME280_temperature;BME280_humidity;BME280_pressure;Samples;Min_cycle;Max_cycle;Signal;HPM_P1;HPM_P2
2022/05/19 00:02:14;;;;;;;0.60;0.60;;;;;;;17.71;63.16;95976.72;4347141;32;20207;-62
2022/05/19 00:04:44;;;;;;;0.33;0.33;;;;;;;17.59;61.37;95981.94;4370082;32;20199;-61
2022/05/19 00:07:10;;;;;;;0.83;0.83;;;;;;;17.58;62.86;95976.91;4374846;32;20193;-62
2022/05/19 00:09:37;;;;;;;0.33;0.33;;;;;;;17.62;64.77;95973.25;4335782;32;20191;-61
2022/05/19 00:12:27;;;;;;;0.60;0.60;;;;;;;17.59;61.14;95973.91;4361086;32;20206;-61
2022/05/19 00:14:53;;;;;;;0.80;0.80;;;;;;;17.60;61.45;95978.16;4371430;32;20185;-61
2022/05/19 00:17:19;;;;;;;3.10;1.27;;;;;;;17.35;61.14;95974.44;4380939;32;20200;-62
2022/05/19 00:19:45;;;;;;;0.50;0.50;;;;;;;17.32;63.36;95975.09;4338459;32;20184;-61
2022/05/19 00:22:13;;;;;;;0.90;0.90;;;;;;;17.30;61.18;95971.94;4345928;32;20276;-62
2022/05/19 00:24:40;;;;;;;0.70;0.70;;;;;;;17.36;65.82;95959.16;4376288;32;20203;-62
2022/05/19 00:27:08;;;;;;;1.07;1.07;;;;;;;17.30;65.10;95963.09;4372140;32;20184;-61
2022/05/19 00:29:33;;;;;;;0.70;0.70;;;;;;;17.24;62.03;95961.72;4366529;32;20218;-62
2022/05/19 00:32:00;;;;;;;1.13;1.03;;;;;;;17.20;64.76;95955.41;4386888;32;20200;-62
2022/05/19 00:34:27;;;;;;;0.70;0.70;;;;;;;17.15;65.91;95959.84;4362443;32;20176;-62
2022/05/19 00:36:59;;;;;;;0.77;0.77;;;;;;;17.07;62.89;95946.44;4373272;32;20177;-62
2022/05/19 00:39:27;;;;;;;0.83;0.83;;;;;;;17.16;63.41;95956.03;4380605;32;20277;-62
2022/05/19 00:42:43;;;;;;;1.77;1.13;;;;;;;17.21;64.06;95951.63;4375002;32;20185;-62
2022/05/19 00:44:41;;;;;;;0.87;0.87;;;;;;;17.27;66.36;95948.44;4367796;32;20184;-62
2022/05/19 00:47:13;;;;;;;0.70;0.70;;;;;;;17.23;65.42;95952.09;4367726;32;20189;-62
2022/05/19 00:49:44;;;;;;;1.73;0.97;;;;;;;17.14;62.57;95950.22;4361572;32;20192;-62
2022/05/19 00:52:22;;;;;;;0.83;0.83;;;;;;;17.21;65.29;95952.41;4375104;32;20219;-62
2022/05/19 00:55:00;;;;;;;1.40;1.30;;;;;;;17.14;66.79;95952.88;4365445;32;20210;-62
2022/05/19 00:57:31;;;;;;;0.57;0.57;;;;;;;17.07;64.19;95943.75;4368599;32;20294;-62
2022/05/19 01:00:20;;;;;;;0.50;0.50;;;;;;;17.37;67.38;95947.31;4352438;32;20215;-62
2022/05/19 01:02:56;;;;;;;0.73;0.73;;;;;;;17.21;64.62;95940.91;4366595;32;20184;-61
2022/05/19 01:05:48;;;;;;;0.57;0.57;;;;;;;17.35;68.01;95941.47;4328053;32;20173;-63
2022/05/19 01:08:40;;;;;;;0.67;0.67;;;;;;;17.28;67.76;95941.97;4383469;32;20185;-61
2022/05/19 01:11:15;;;;;;;0.43;0.43;;;;;;;17.26;68.16;95944.16;4383164;32;20189;-62
2022/05/19 01:13:43;;;;;;;2.03;1.33;;;;;;;17.26;67.71;95944.16;4363484;32;20251;-61
2022/05/19 01:16:13;;;;;;;0.37;0.37;;;;;;;17.22;66.61;95947.84;4383067;32;20209;-62
2022/05/19 01:18:41;;;;;;;2.37;0.90;;;;;;;17.13;66.87;95943.28;4367608;32;20176;-62
2022/05/19 01:21:16;;;;;;;0.60;0.60;;;;;;;17.32;68.28;95950.16;4387578;32;20188;-62
2022/05/19 01:24:06;;;;;;;3.60;0.93;;;;;;;17.22;66.02;95953.19;4384767;32;20199;-62
2022/05/19 01:26:52;;;;;;;0.67;0.67;;;;;;;16.84;67.91;95951.97;4388102;32;20287;-61
2022/05/19 01:29:23;;;;;;;9.97;1.27;;;;;;;17.23;70.58;95944.84;4375652;32;20190;-61
2022/05/19 01:31:56;;;;;;;6.47;1.60;;;;;;;17.31;69.81;95940.53;4375081;32;20202;-61
2022/05/19 01:34:27;;;;;;;0.83;0.83;;;;;;;17.22;69.86;95937.91;4363654;32;20211;-61
2022/05/19 01:36:54;;;;;;;0.87;0.87;;;;;;;17.24;65.85;95941.06;4340820;32;20219;-62
2022/05/19 01:39:26;;;;;;;0.50;0.50;;;;;;;17.27;68.60;95945.75;4312933;32;20232;-61
2022/05/19 01:42:45;;;;;;;0.63;0.63;;;;;;;17.16;66.69;95934.59;4374094;32;20196;-62
2022/05/19 01:45:33;;;;;;;1.40;0.83;;;;;;;16.76;68.08;95938.63;4375232;32;20195;-62
2022/05/19 01:48:07;;;;;;;0.80;0.80;;;;;;;16.55;68.34;95941.13;4355275;32;20226;-62
2022/05/19 01:51:01;;;;;;;1.87;1.33;;;;;;;16.43;68.28;95944.41;4371231;32;20279;-62
2022/05/19 01:53:40;;;;;;;1.07;0.70;;;;;;;16.60;69.27;95949.00;4356853;32;20177;-62
2022/05/19 01:56:33;;;;;;;0.77;0.77;;;;;;;16.73;68.98;95932.00;4378693;32;20168;-61
2022/05/19 01:59:31;;;;;;;1.00;1.00;;;;;;;16.76;67.35;95935.94;4389533;32;20215;-62
2022/05/19 02:02:33;;;;;;;1.37;1.27;;;;;;;16.68;67.96;95934.81;4377726;32;20200;-62
2022/05/19 02:05:38;;;;;;;1.23;0.73;;;;;;;16.68;68.97;95939.41;4373477;32;20206;-62
2022/05/19 02:08:07;;;;;;;1.13;0.93;;;;;;;16.77;68.50;95945.53;4389933;32;20193;-62
2022/05/19 02:10:38;;;;;;;0.97;0.97;;;;;;;16.67;68.34;95948.53;4377698;32;20202;-62
2022/05/19 02:13:04;;;;;;;1.47;1.37;;;;;;;16.91;71.48;95943.47;4376777;32;20243;-61
2022/05/19 02:15:52;;;;;;;0.73;0.73;;;;;;;16.90;69.58;95935.75;4391133;32;20253;-62
2022/05/19 02:18:24;;;;;;;0.90;0.90;;;;;;;17.07;68.72;95936.50;4372382;32;20302;-62
2022/05/19 02:20:55;;;;;;;0.83;0.67;;;;;;;17.06;70.22;95942.97;4369022;32;20226;-61
2022/05/19 02:23:30;;;;;;;0.93;0.93;;;;;;;16.90;68.62;95944.56;4370975;32;20235;-61
2022/05/19 02:25:57;;;;;;;1.53;1.13;;;;;;;16.73;67.53;95942.72;4380533;32;20176;-61
2022/05/19 02:28:54;;;;;;;1.10;1.10;;;;;;;16.72;67.59;95941.13;4357278;32;20177;-61
2022/05/19 02:31:21;;;;;;;2.50;1.20;;;;;;;16.66;67.74;95952.31;4380109;32;20188;-61
2022/05/19 02:33:50;;;;;;;1.63;1.20;;;;;;;16.57;68.18;95951.53;4388099;32;20191;-62
2022/05/19 02:36:17;;;;;;;0.90;0.90;;;;;;;16.21;70.68;95944.53;4371167;32;20191;-62
2022/05/19 02:38:43;;;;;;;1.43;1.33;;;;;;;16.27;69.17;95951.34;4368116;32;20189;-62
2022/05/19 02:41:14;;;;;;;1.73;0.83;;;;;;;16.22;70.34;95948.00;4391710;32;20181;-62
2022/05/19 02:43:44;;;;;;;0.80;0.80;;;;;;;16.11;70.69;95944.84;4379586;32;20191;-61
2022/05/19 02:46:12;;;;;;;0.90;0.90;;;;;;;15.98;70.92;95943.12;4328660;32;20227;-62
2022/05/19 02:48:40;;;;;;;0.90;0.90;;;;;;;16.20;68.05;95939.53;4360704;32;20256;-62
2022/05/19 02:51:15;;;;;;;4.03;1.13;;;;;;;16.12;70.06;95943.75;4371462;32;20199;-61
2022/05/19 02:53:44;;;;;;;0.90;0.90;;;;;;;16.12;70.28;95941.88;4374314;32;20181;-62
2022/05/19 02:56:12;;;;;;;0.87;0.87;;;;;;;15.93;70.66;95940.56;4344900;32;20212;-62
2022/05/19 02:58:40;;;;;;;0.70;0.70;;;;;;;16.11;71.87;95942.19;4350425;32;20188;-62
2022/05/19 03:01:15;;;;;;;0.43;0.43;;;;;;;16.00;70.31;95940.91;4394016;32;20204;-61
2022/05/19 03:03:43;;;;;;;1.00;1.00;;;;;;;16.13;70.29;95942.66;4395634;32;20225;-61
2022/05/19 03:06:16;;;;;;;0.93;0.93;;;;;;;16.04;70.66;95941.84;4343785;32;20196;-62
2022/05/19 03:08:43;;;;;;;0.93;0.93;;;;;;;16.17;72.19;95937.47;4358072;32;20259;-62
2022/05/19 03:11:14;;;;;;;0.40;0.40;;;;;;;16.14;70.77;95941.56;4364363;32;20238;-62
2022/05/19 03:13:43;;;;;;;0.93;0.93;;;;;;;16.38;71.93;95933.88;4357676;32;20193;-63
2022/05/19 03:16:12;;;;;;;2.90;1.00;;;;;;;16.55;71.96;95934.97;4398434;32;20199;-63
2022/05/19 03:18:39;;;;;;;0.57;0.57;;;;;;;16.61;71.62;95931.03;4358461;32;20255;-62
2022/05/19 03:21:14;;;;;;;1.00;1.00;;;;;;;16.26;69.33;95935.59;4360325;32;20315;-63
2022/05/19 03:23:39;;;;;;;0.90;0.90;;;;;;;16.27;70.30;95937.16;4368682;32;20251;-62
2022/05/19 03:26:14;;;;;;;0.93;0.93;;;;;;;15.91;69.20;95938.22;4389104;32;20184;-62
2022/05/19 03:28:40;;;;;;;0.40;0.40;;;;;;;15.99;69.96;95942.03;4390609;32;20255;-62
2022/05/19 03:31:15;;;;;;;0.47;0.47;;;;;;;16.06;71.96;95945.00;4345234;32;20203;-62
2022/05/19 03:33:43;;;;;;;0.87;0.87;;;;;;;16.03;73.01;95945.63;4372280;32;20184;-62
2022/05/19 03:36:19;;;;;;;0.77;0.77;;;;;;;16.15;71.54;95945.81;4363645;32;20189;-62
2022/05/19 03:38:45;;;;;;;0.60;0.60;;;;;;;16.05;70.15;95946.87;4357087;32;20192;-61
2022/05/19 03:41:14;;;;;;;0.97;0.97;;;;;;;15.90;70.10;95950.00;4382029;32;20252;-61
2022/05/19 03:43:41;;;;;;;1.30;1.23;;;;;;;16.18;71.28;95947.09;4367880;32;20189;-62
2022/05/19 03:46:12;;;;;;;1.00;0.90;;;;;;;16.03;71.21;95942.94;4334477;32;20219;-61
2022/05/19 03:48:40;;;;;;;0.50;0.50;;;;;;;15.95;70.33;95941.06;4375206;32;20184;-61
2022/05/19 03:51:59;;;;;;;0.60;0.60;;;;;;;15.83;71.17;95944.31;4363057;32;20200;-62
2022/05/19 03:54:25;;;;;;;0.93;0.93;;;;;;;15.88;70.83;95951.41;4337429;32;20184;-62
2022/05/19 03:56:53;;;;;;;0.50;0.50;;;;;;;16.00;70.70;95956.97;4359054;32;20248;-62
2022/05/19 03:59:20;;;;;;;0.83;0.83;;;;;;;16.22;70.72;95950.69;4390434;32;20203;-63
2022/05/19 04:01:47;;;;;;;0.60;0.50;;;;;;;15.90;70.26;95947.34;4374279;32;20202;-63
2022/05/19 04:04:13;;;;;;;0.87;0.87;;;;;;;15.78;71.62;95955.97;4377806;32;20221;-62
2022/05/19 04:06:40;;;;;;;4.00;1.00;;;;;;;15.91;71.92;95958.84;4377408;32;20189;-62
2022/05/19 04:09:08;;;;;;;0.97;0.97;;;;;;;15.79;71.55;95954.09;4390498;32;20202;-62
2022/05/19 04:11:33;;;;;;;1.50;1.00;;;;;;;15.80;71.61;95953.75;4389243;32;20211;-62
2022/05/19 04:14:00;;;;;;;1.33;1.30;;;;;;;15.77;71.26;95956.28;4366575;32;20204;-62
2022/05/19 04:16:26;;;;;;;0.30;0.30;;;;;;;15.59;71.75;95957.31;4388408;32;20227;-62
2022/05/19 04:18:53;;;;;;;0.73;0.73;;;;;;;15.51;71.60;95960.72;4349707;32;20192;-63
2022/05/19 04:21:21;;;;;;;10.37;1.50;;;;;;;15.70;73.11;95962.06;4360668;32;20185;-62
2022/05/19 04:23:48;;;;;;;2.10;1.67;;;;;;;15.72;72.01;95967.91;4355404;32;20203;-62
2022/05/19 04:26:13;;;;;;;0.87;0.87;;;;;;;15.69;73.32;95960.50;4367637;32;20173;-62
2022/05/19 04:28:40;;;;;;;1.17;1.10;;;;;;;15.50;72.97;95970.63;4371681;32;20196;-62
2022/05/19 04:31:16;;;;;;;1.30;1.30;;;;;;;15.47;73.87;95960.53;4376650;32;20185;-63
2022/05/19 04:33:42;;;;;;;0.70;0.70;;;;;;;15.59;73.75;95963.44;4375270;32;20176;-63
2022/05/19 04:36:15;;;;;;;4.63;1.57;;;;;;;15.72;70.43;95962.56;4372059;32;20243;-62
2022/05/19 04:38:43;;;;;;;1.10;1.10;;;;;;;15.77;74.05;95962.44;4389489;32;20190;-62
2022/05/19 04:41:14;;;;;;;0.90;0.90;;;;;;;15.74;72.40;95959.56;4350048;32;20173;-62
2022/05/19 04:43:39;;;;;;;0.80;0.80;;;;;;;15.92;74.34;95969.22;4389409;32;20180;-60
2022/05/19 04:46:15;;;;;;;1.10;1.00;;;;;;;15.79;72.98;95967.47;4343546;32;20195;-62
2022/05/19 04:48:41;;;;;;;0.90;0.90;;;;;;;15.77;73.74;95975.00;4388989;32;20171;-62
2022/05/19 04:51:24;;;;;;;1.13;1.13;;;;;;;15.65;73.43;95977.47;4374458;32;20188;-62
2022/05/19 04:53:50;;;;;;;0.90;0.90;;;;;;;15.52;72.74;95973.78;4353832;32;20184;-62
2022/05/19 04:56:16;;;;;;;0.93;0.93;;;;;;;15.71;72.41;95976.25;4385847;32;20190;-63
2022/05/19 04:58:41;;;;;;;1.60;0.97;;;;;;;15.69;73.51;95979.22;4377804;32;20177;-62
2022/05/19 05:01:16;;;;;;;0.90;0.90;;;;;;;15.79;72.08;95973.56;4379281;32;20204;-62
2022/05/19 05:03:41;;;;;;;0.60;0.60;;;;;;;15.86;74.47;95975.03;4356776;32;20198;-62
2022/05/19 05:06:16;;;;;;;1.57;0.83;;;;;;;15.89;72.47;95971.72;4360114;32;20288;-62
2022/05/19 05:08:43;;;;;;;1.60;1.50;;;;;;;16.04;73.45;95973.97;4325965;32;20189;-61
2022/05/19 05:11:14;;;;;;;0.87;0.87;;;;;;;16.02;72.69;95965.47;4333684;32;20276;-62
2022/05/19 05:13:41;;;;;;;0.83;0.67;;;;;;;16.05;71.48;95972.88;4337100;32;20181;-62
2022/05/19 05:16:18;;;;;;;0.70;0.70;;;;;;;16.00;70.81;95975.72;4373085;32;20268;-62
2022/05/19 05:18:43;;;;;;;2.07;1.63;;;;;;;15.77;70.93;95977.69;4359144;32;20181;-62
2022/05/19 05:21:13;;;;;;;1.00;1.00;;;;;;;16.06;73.69;95977.13;4357972;32;20231;-62
2022/05/19 05:23:40;;;;;;;1.10;1.10;;;;;;;16.12;71.31;95984.72;4324476;32;20177;-62
2022/05/19 05:26:12;;;;;;;0.93;0.93;;;;;;;15.91;70.18;95982.91;4326239;32;20181;-62
2022/05/19 05:28:41;;;;;;;1.00;1.00;;;;;;;16.23;72.68;95982.50;4357475;32;20189;-63
2022/05/19 05:31:14;;;;;;;2.67;1.77;;;;;;;16.13;71.69;95991.63;4352312;32;20207;-62
2022/05/19 05:33:40;;;;;;;1.27;1.20;;;;;;;16.33;71.81;95978.75;4374061;32;20248;-63
2022/05/19 05:36:08;;;;;;;0.80;0.80;;;;;;;16.26;68.69;95984.56;4357738;32;20181;-62
2022/05/19 05:38:36;;;;;;;0.80;0.80;;;;;;;16.23;69.65;95987.06;4361495;32;20268;-62
2022/05/19 05:41:02;;;;;;;0.80;0.80;;;;;;;16.18;68.61;95988.03;4373827;32;22770;-63
2022/05/19 05:43:39;;;;;;;1.53;1.47;;;;;;;16.22;70.38;95986.28;4377252;32;20209;-62
2022/05/19 05:46:14;;;;;;;0.80;0.80;;;;;;;16.01;68.11;95998.66;4362670;32;20200;-63
2022/05/19 05:48:40;;;;;;;0.70;0.70;;;;;;;15.92;69.10;96003.22;4365008;32;20188;-62
2022/05/19 05:51:11;;;;;;;0.67;0.67;;;;;;;15.60;68.66;96001.66;4331162;32;20245;-62
2022/05/19 05:53:43;;;;;;;0.93;0.70;;;;;;;15.50;69.72;95997.38;4348528;32;20216;-62
2022/05/19 05:56:12;;;;;;;1.20;1.20;;;;;;;15.75;70.13;96002.06;4335749;32;20192;-62
2022/05/19 05:58:39;;;;;;;1.03;1.03;;;;;;;15.59;69.98;96000.88;4334883;32;20244;-62
2022/05/19 06:01:11;;;;;;;3.67;1.50;;;;;;;15.57;70.73;95997.75;4342361;32;20218;-62
2022/05/19 06:03:38;;;;;;;0.90;0.90;;;;;;;15.72;71.12;95997.34;4351219;32;20196;-62
2022/05/19 06:06:10;;;;;;;1.13;1.13;;;;;;;15.92;70.26;95993.31;4371560;32;20236;-63
2022/05/19 06:08:37;;;;;;;1.23;1.23;;;;;;;16.10;70.87;95994.94;4380376;32;20203;-63
2022/05/19 06:11:09;;;;;;;0.87;0.87;;;;;;;16.16;70.75;95998.25;4357978;32;20267;-62
2022/05/19 06:13:36;;;;;;;1.07;1.07;;;;;;;16.26;70.87;95997.16;4359408;32;20207;-62
2022/05/19 06:16:15;;;;;;;0.97;0.97;;;;;;;16.35;69.79;95993.41;4372924;32;21246;-62
2022/05/19 06:18:40;;;;;;;0.90;0.90;;;;;;;16.53;69.71;95998.78;4365648;32;20189;-62
2022/05/19 06:21:11;;;;;;;1.00;1.00;;;;;;;16.53;70.16;95996.91;4374296;32;20191;-63
2022/05/19 06:23:41;;;;;;;1.23;1.23;;;;;;;16.63;71.12;96001.97;4356374;32;20215;-63
2022/05/19 06:26:09;;;;;;;1.17;1.13;;;;;;;16.69;70.90;96008.75;4327744;32;20281;-62
2022/05/19 06:28:38;;;;;;;1.60;1.50;;;;;;;16.81;71.00;96000.09;4353402;32;20196;-62
2022/05/19 06:31:13;;;;;;;0.67;0.67;;;;;;;17.04;70.24;95995.34;4377482;32;20176;-62
2022/05/19 06:33:40;;;;;;;1.40;1.40;;;;;;;17.18;70.19;96002.09;4324063;32;20195;-62
2022/05/19 06:36:10;;;;;;;0.90;0.90;;;;;;;16.96;68.54;96006.84;4365546;32;20359;-62
2022/05/19 06:38:41;;;;;;;3.67;1.80;;;;;;;17.03;70.27;96001.81;4368826;32;20193;-62
2022/05/19 06:43:54;;;;;;;0.60;0.60;;;;;;;17.45;69.24;96005.53;4383956;32;20225;-62
2022/05/19 06:46:21;;;;;;;0.60;0.60;;;;;;;17.47;68.66;96005.97;4390533;32;20270;-62
2022/05/19 06:49:02;;;;;;;1.10;1.10;;;;;;;17.59;69.18;96013.38;4379814;32;20255;-62
2022/05/19 06:51:28;;;;;;;0.63;0.63;;;;;;;17.75;68.94;96009.84;4380418;32;20199;-62
2022/05/19 06:53:55;;;;;;;0.70;0.70;;;;;;;17.80;69.94;96004.31;4367914;32;20208;-62
2022/05/19 06:56:22;;;;;;;1.80;1.10;;;;;;;17.72;68.53;96009.72;4385686;32;20207;-63
2022/05/19 06:58:48;;;;;;;19.53;1.57;;;;;;;17.97;68.60;96005.34;4364193;32;20204;-62
2022/05/19 07:01:14;;;;;;;2.43;1.10;;;;;;;18.11;67.96;96011.28;4367288;32;20195;-62
2022/05/19 07:03:40;;;;;;;0.90;0.90;;;;;;;18.13;68.11;96009.06;4375893;32;20192;-62
2022/05/19 07:06:13;;;;;;;0.60;0.60;;;;;;;18.37;68.29;96003.84;4391343;32;20200;-62
2022/05/19 07:08:38;;;;;;;0.80;0.80;;;;;;;18.31;70.05;96010.53;4375846;32;20242;-63
2022/05/19 07:11:24;;;;;;;0.93;0.93;;;;;;;18.43;69.12;96012.53;4371430;32;20264;-61
2022/05/19 07:13:55;;;;;;;1.00;1.00;;;;;;;18.53;67.63;96004.06;4339297;32;20200;-61
2022/05/19 07:16:22;;;;;;;0.87;0.87;;;;;;;18.68;68.23;96003.53;4321809;32;20185;-62
2022/05/19 07:20:43;;;;;;;0.50;0.50;;;;;;;18.61;67.62;96007.84;4338025;32;20256;-62
2022/05/19 07:21:37;;;;;;;0.87;0.87;;;;;;;18.84;67.28;96001.03;4357763;32;20189;-62
2022/05/19 07:24:04;;;;;;;1.87;1.77;;;;;;;18.79;68.20;95999.31;4363629;32;20274;-63
2022/05/19 07:26:31;;;;;;;1.20;1.20;;;;;;;19.00;67.88;96003.91;4337886;32;20185;-63
2022/05/19 07:28:57;;;;;;;0.83;0.83;;;;;;;19.14;67.01;96007.87;4360383;32;20192;-63
2022/05/19 07:31:24;;;;;;;0.90;0.90;;;;;;;19.22;66.31;96008.91;4353404;32;20226;-62
2022/05/19 07:33:50;;;;;;;0.97;0.97;;;;;;;19.25;66.17;96010.94;4347172;32;20204;-63
2022/05/19 07:36:18;;;;;;;1.23;1.00;;;;;;;19.27;66.35;96013.31;4362044;32;20187;-63
2022/05/19 07:38:43;;;;;;;0.77;0.77;;;;;;;19.39;67.31;96007.94;4352511;32;20247;-62
2022/05/19 07:41:10;;;;;;;0.80;0.80;;;;;;;19.48;66.13;96003.28;4364760;32;20251;-63
2022/05/19 07:43:37;;;;;;;0.70;0.70;;;;;;;19.54;65.26;96010.03;4359238;32;20267;-63
2022/05/19 07:46:11;;;;;;;1.40;1.40;;;;;;;19.61;65.19;96012.19;4305285;32;20294;-63
2022/05/19 07:48:39;;;;;;;0.50;0.50;;;;;;;19.75;65.01;96018.03;4361689;32;20187;-63
2022/05/19 07:51:10;;;;;;;0.87;0.87;;;;;;;19.87;64.17;96016.16;4338318;32;20192;-63
2022/05/19 07:53:37;;;;;;;9.10;0.73;;;;;;;20.03;63.73;96007.41;4355293;32;20188;-63
2022/05/19 07:56:03;;;;;;;0.77;0.77;;;;;;;20.03;64.60;96005.50;4366776;32;20283;-63
2022/05/19 07:58:29;;;;;;;0.83;0.83;;;;;;;20.15;64.17;96013.59;4360034;32;20188;-63
2022/05/19 08:00:59;;;;;;;0.93;0.93;;;;;;;20.26;64.00;96011.22;4344968;32;20197;-63
2022/05/19 08:03:25;;;;;;;0.80;0.80;;;;;;;20.34;63.73;96010.34;4354992;32;20185;-63
2022/05/19 08:05:53;;;;;;;1.00;0.90;;;;;;;20.42;63.77;96006.75;4332545;32;20185;-63
2022/05/19 08:08:20;;;;;;;0.70;0.70;;;;;;;20.39;63.17;96009.31;4333001;32;20248;-63
2022/05/19 08:10:46;;;;;;;2.90;1.27;;;;;;;20.46;62.21;96015.72;4299557;32;20193;-63
2022/05/19 08:16:00;;;;;;;0.77;0.77;;;;;;;20.58;63.57;96014.91;4347731;32;20203;-63
2022/05/19 08:18:27;;;;;;;0.77;0.77;;;;;;;20.65;62.80;96008.94;4353521;32;20184;-62
2022/05/19 08:20:57;;;;;;;1.23;1.13;;;;;;;20.68;63.19;96011.75;4357628;32;20184;-63
2022/05/19 08:23:30;;;;;;;0.50;0.50;;;;;;;20.74;64.07;96004.22;4334720;32;20243;-63
2022/05/19 08:25:57;;;;;;;0.67;0.67;;;;;;;20.75;62.76;96001.19;4343512;32;20177;-63
2022/05/19 08:28:29;;;;;;;1.33;1.27;;;;;;;20.82;63.02;96000.59;4322205;32;20212;-63
2022/05/19 08:31:00;;;;;;;0.50;0.50;;;;;;;20.92;63.20;96005.50;4364588;32;20181;-51
2022/05/19 08:33:28;;;;;;;0.87;0.87;;;;;;;21.11;62.26;96012.97;4346665;32;20196;-46
2022/05/19 08:35:54;;;;;;;0.93;0.93;;;;;;;21.13;62.42;96000.72;4354911;32;20176;-49
2022/05/19 08:38:23;;;;;;;0.47;0.47;;;;;;;21.19;63.03;96001.25;4359316;32;20207;-52
2022/05/19 08:41:02;;;;;;;0.60;0.60;;;;;;;21.22;63.00;96004.06;4341124;32;20185;-51
2022/05/19 08:43:52;;;;;;;1.20;1.20;;;;;;;21.26;62.95;96004.94;4371358;32;20240;-49
2022/05/19 08:46:31;;;;;;;0.80;0.80;;;;;;;21.35;62.17;96007.50;4363521;32;20200;-51
2022/05/19 08:49:04;;;;;;;0.87;0.87;;;;;;;21.36;62.26;96000.97;4353226;32;20172;-48
2022/05/19 08:51:38;;;;;;;1.33;1.23;;;;;;;21.40;62.03;96006.47;4364029;32;20199;-50
2022/05/19 08:54:12;;;;;;;0.63;0.63;;;;;;;21.41;61.56;96006.09;4333853;32;20176;-53
2022/05/19 08:56:56;;;;;;;1.13;1.13;;;;;;;21.41;61.44;95999.91;4329572;32;20227;-49
2022/05/19 08:59:56;;;;;;;0.67;0.67;;;;;;;21.48;60.46;96010.91;4326819;32;20213;-52
2022/05/19 09:02:59;;;;;;;0.40;0.40;;;;;;;21.53;60.35;95997.16;4371821;32;20216;-50
2022/05/19 09:05:43;;;;;;;0.70;0.70;;;;;;;21.51;61.06;95992.09;4336643;32;20256;-53
2022/05/19 09:08:45;;;;;;;0.80;0.80;;;;;;;21.64;60.08;95994.72;4360880;32;20188;-53
2022/05/19 09:11:38;;;;;;;0.70;0.70;;;;;;;21.83;58.55;95990.19;4359337;32;20188;-52
2022/05/19 09:14:37;;;;;;;0.67;0.67;;;;;;;22.35;55.85;95986.44;4357831;32;20181;-53
2022/05/19 09:17:10;;;;;;;0.73;0.73;;;;;;;22.27;56.69;95996.31;4383622;32;20180;-51
2022/05/19 09:19:55;;;;;;;0.90;0.90;;;;;;;22.22;58.33;95991.19;4337893;32;20193;-51
2022/05/19 09:22:26;;;;;;;0.57;0.57;;;;;;;22.19;59.18;95991.87;4364147;32;20180;-52
2022/05/19 09:24:53;;;;;;;0.50;0.50;;;;;;;22.11;59.56;95984.72;4363493;32;20307;-49
2022/05/19 09:27:22;;;;;;;1.50;0.93;;;;;;;22.15;58.42;95985.59;4345043;32;20185;-53
2022/05/19 09:29:56;;;;;;;0.73;0.73;;;;;;;21.97;59.76;95989.00;4358456;32;20181;-50
2022/05/19 09:32:45;;;;;;;1.50;0.97;;;;;;;22.10;58.39;95982.38;4349909;32;20273;-50
2022/05/19 09:35:36;;;;;;;0.87;0.87;;;;;;;22.10;59.12;95982.38;4363414;32;20219;-49
2022/05/19 09:38:16;;;;;;;0.73;0.73;;;;;;;22.35;58.12;95985.66;4365573;32;20181;-50
2022/05/19 09:40:56;;;;;;;0.73;0.73;;;;;;;22.51;57.53;95979.06;4398454;32;20224;-52
2022/05/19 09:43:30;;;;;;;1.33;1.33;;;;;;;22.54;57.69;95983.78;4370219;32;20220;-51
2022/05/19 09:46:33;;;;;;;0.93;0.60;;;;;;;22.73;57.38;95979.53;4374578;32;20271;-51
2022/05/19 09:49:06;;;;;;;0.50;0.50;;;;;;;22.39;58.72;95987.31;4375386;32;20169;-49
2022/05/19 09:51:47;;;;;;;0.80;0.80;;;;;;;22.53;58.67;95986.84;4381909;32;20187;-50
2022/05/19 09:54:15;;;;;;;0.93;0.93;;;;;;;22.48;58.42;95976.28;4359754;32;20189;-52
2022/05/19 09:56:48;;;;;;;0.80;0.40;;;;;;;22.56;57.78;95984.22;4344321;32;20192;-52
2022/05/19 09:59:19;;;;;;;1.40;1.30;;;;;;;22.52;58.76;95983.34;4386020;32;20239;-50
2022/05/19 10:01:49;;;;;;;0.90;0.90;;;;;;;22.64;59.04;95985.16;4376482;32;20253;-51
2022/05/19 10:04:29;;;;;;;0.93;0.93;;;;;;;22.65;58.45;95977.81;4391425;32;20195;-51
2022/05/19 10:06:57;;;;;;;1.93;1.83;;;;;;;22.86;58.18;95978.28;4376451;32;20298;-49
2022/05/19 10:09:39;;;;;;;1.27;1.20;;;;;;;22.95;57.92;95979.63;4389986;32;20059;-52
2022/05/19 10:12:10;;;;;;;1.17;1.17;;;;;;;23.02;57.66;95973.59;4372657;32;20196;-53
2022/05/19 10:14:38;;;;;;;1.20;1.20;;;;;;;23.02;58.07;95967.38;4356200;32;20215;-47
2022/05/19 10:17:38;;;;;;;0.63;0.63;;;;;;;22.92;58.08;95963.31;4378632;32;20181;-48
2022/05/19 10:20:27;;;;;;;1.33;1.33;;;;;;;23.03;58.28;95979.78;4354487;32;20189;-52
2022/05/19 10:22:56;;;;;;;0.33;0.33;;;;;;;23.06;58.36;95979.06;4356437;32;20224;-52
2022/05/19 10:25:34;;;;;;;0.97;0.97;;;;;;;23.08;58.42;95969.44;4367927;32;20258;-52
2022/05/19 10:31:44;;;;;;;0.90;0.90;;;;;;;23.49;56.96;95959.75;4354041;32;20183;-49
2022/05/19 10:34:37;;;;;;;1.33;1.27;;;;;;;23.41;57.91;95957.28;4388225;32;20250;-50
2022/05/19 10:37:40;;;;;;;0.93;0.93;;;;;;;23.53;58.36;95949.78;4373688;32;20188;-49
2022/05/19 10:40:51;;;;;;;1.03;1.03;;;;;;;23.45;57.46;95960.84;4373517;32;20189;-50
2022/05/19 10:43:41;;;;;;;3.47;3.17;;;;;;;23.49;58.18;95954.31;4302827;33;20182;-51
2022/05/19 10:46:32;;;;;;;0.90;0.90;;;;;;;23.33;58.14;95959.06;4385746;32;20201;-51
2022/05/19 10:49:35;;;;;;;0.90;0.90;;;;;;;23.57;58.12;95945.22;4340851;32;20176;-49
2022/05/19 10:52:26;;;;;;;0.97;0.97;;;;;;;23.53;57.77;95952.50;4338478;32;20200;-47
2022/05/19 10:55:23;;;;;;;1.43;1.43;;;;;;;23.77;57.29;95947.88;4314948;33;20238;-52
2022/05/19 10:58:22;;;;;;;0.77;0.77;;;;;;;23.45;58.04;95939.19;4313068;32;20193;-50
2022/05/19 11:01:30;;;;;;;1.57;1.03;;;;;;;23.70;57.43;95937.69;4307232;33;20186;-54
2022/05/19 11:04:15;;;;;;;1.17;1.17;;;;;;;23.63;58.04;95943.00;4310387;33;20127;-51
2022/05/19 11:07:06;;;;;;;3.43;0.97;;;;;;;23.11;59.53;95938.16;4356157;32;20234;-53
2022/05/19 11:10:01;;;;;;;1.37;1.37;;;;;;;23.38;58.59;95942.53;4366171;32;20180;-54
2022/05/19 11:12:48;;;;;;;1.03;1.03;;;;;;;23.14;59.95;95943.66;4318093;32;20244;-52
2022/05/19 11:15:18;;;;;;;0.77;0.77;;;;;;;22.99;60.40;95933.69;4369252;32;20226;-51
2022/05/19 11:18:12;;;;;;;7.10;1.20;;;;;;;23.00;60.10;95927.16;4378952;32;20234;-50
2022/05/19 11:21:24;;;;;;;1.13;1.13;;;;;;;23.06;59.62;95928.44;4365534;32;20184;-53
2022/05/19 11:23:58;;;;;;;1.00;1.00;;;;;;;23.09;60.16;95918.78;4371041;32;20196;-52
2022/05/19 11:26:59;;;;;;;1.07;1.07;;;;;;;23.28;60.15;95929.56;4364551;32;20194;-51
2022/05/19 11:29:40;;;;;;;1.80;1.30;;;;;;;23.48;59.93;95912.16;4335108;32;20362;-52
2022/05/19 11:32:12;;;;;;;1.13;1.13;;;;;;;23.34;59.30;95920.03;4350864;32;20192;-54
2022/05/19 11:34:50;;;;;;;1.13;1.13;;;;;;;23.72;59.29;95921.06;4366796;32;20195;-52
2022/05/19 11:37:45;;;;;;;0.70;0.70;;;;;;;23.17;59.60;95913.16;4366488;32;20207;-48
2022/05/19 11:40:34;;;;;;;0.80;0.80;;;;;;;23.06;60.88;95904.06;4373873;32;20267;-49
2022/05/19 11:43:18;;;;;;;1.27;1.27;;;;;;;23.43;59.37;95911.66;4321602;32;20292;-53
2022/05/19 11:46:22;;;;;;;0.83;0.83;;;;;;;23.14;60.39;95915.78;4348830;32;20226;-51
2022/05/19 11:55:16;;;;;;;0.77;0.77;;;;;;;23.05;60.70;95907.13;4373495;32;20195;-51
2022/05/19 11:57:52;;;;;;;3.50;1.80;;;;;;;23.77;59.86;95908.00;4361057;32;20276;-54
2022/05/19 12:00:26;;;;;;;0.70;0.70;;;;;;;24.45;56.92;95901.66;4348799;32;20172;-54
2022/05/19 12:03:16;;;;;;;1.03;1.03;;;;;;;23.79;59.57;95910.34;4362661;32;20185;-54
2022/05/19 12:05:56;;;;;;;0.90;0.90;;;;;;;24.01;58.80;95903.31;4358606;32;20185;-55
2022/05/19 12:08:34;;;;;;;0.70;0.70;;;;;;;24.33;57.10;95899.94;4378528;32;20195;-55
2022/05/19 12:11:22;;;;;;;1.07;1.07;;;;;;;24.31;57.34;95906.88;4385126;32;20201;-53
2022/05/19 12:13:51;;;;;;;1.43;1.43;;;;;;;24.24;58.10;95902.13;4351868;32;20207;-52
2022/05/19 12:16:58;;;;;;;0.60;0.60;;;;;;;24.60;57.18;95886.31;4356316;32;20176;-55
2022/05/19 12:19:42;;;;;;;2.50;0.97;;;;;;;23.84;58.35;95891.84;4376346;32;20180;-54
2022/05/19 12:22:34;;;;;;;1.17;1.17;;;;;;;23.72;58.86;95889.31;4353658;32;20203;-55
2022/05/19 12:25:03;;;;;;;0.87;0.87;;;;;;;23.50;59.65;95884.69;4369720;32;20177;-56
2022/05/19 12:27:52;;;;;;;0.90;0.90;;;;;;;23.69;59.30;95895.50;4351693;32;20188;-56